sensor_id;sensor_type;location;lat;lon;timestamp;temperature;humidity
32334;DHT22;18810;53.040;8.850;2023-02-17T00:04:52;9.20;99.90
32334;DHT22;18810;53.040;8.850;2023-02-17T00:14:38;9.30;99.90
32334;DHT22;18810;53.040;8.850;2023-02-17T00:17:04;9.30;99.90
32334;DHT22;18810;53.040;8.850;2023-02-17T00:19:29;9.40;99.90
32334;DHT22;18810;53.040;8.850;2023-02-17T00:21:58;9.30;99.90
32334;DHT22;18810;53.040;8.850;2023-02-17T00:24:26;9.30;99.90
32334;DHT22;18810;53.040;8.850;2023-02-17T00:26:52;9.30;99.90
32334;DHT22;18810;53.040;8.850;2023-02-17T00:29:18;9.40;99.90
32334;DHT22;18810;53.040;8.850;2023-02-17T00:31:44;9.40;99.90
32334;DHT22;18810;53.040;8.850;2023-02-17T00:34:11;9.40;99.90
32334;DHT22;18810;53.040;8.850;2023-02-17T00:36:37;9.40;99.90
32334;DHT22;18810;53.040;8.850;2023-02-17T00:39:04;9.40;99.90
32334;DHT22;18810;53.040;8.850;2023-02-17T00:41:30;9.40;99.90
32334;DHT22;18810;53.040;8.850;2023-02-17T00:43:59;9.40;99.90
32334;DHT22;18810;53.040;8.850;2023-02-17T00:46:25;9.40;99.90
32334;DHT22;18810;53.040;8.850;2023-02-17T00:48:51;9.40;99.90
32334;DHT22;18810;53.040;8.850;2023-02-17T00:53:44;9.50;99.90
32334;DHT22;18810;53.040;8.850;2023-02-17T00:56:10;9.50;99.90
32334;DHT22;18810;53.040;8.850;2023-02-17T00:58:36;9.40;99.90
32334;DHT22;18810;53.040;8.850;2023-02-17T01:01:02;9.40;99.90
32334;DHT22;18810;53.040;8.850;2023-02-17T01:03:27;9.50;99.90
32334;DHT22;18810;53.040;8.850;2023-02-17T01:05:53;9.40;99.90
32334;DHT22;18810;53.040;8.850;2023-02-17T01:08:20;9.40;99.90
32334;DHT22;18810;53.040;8.850;2023-02-17T01:10:47;9.50;99.90
32334;DHT22;18810;53.040;8.850;2023-02-17T01:13:15;9.40;99.90
32334;DHT22;18810;53.040;8.850;2023-02-17T01:15:47;9.60;99.90
32334;DHT22;18810;53.040;8.850;2023-02-17T01:18:14;9.50;99.90
32334;DHT22;18810;53.040;8.850;2023-02-17T01:23:09;9.50;99.90
32334;DHT22;18810;53.040;8.850;2023-02-17T01:25:36;9.60;99.90
32334;DHT22;18810;53.040;8.850;2023-02-17T01:28:02;9.50;99.90
32334;DHT22;18810;53.040;8.850;2023-02-17T01:30:27;9.60;99.90
32334;DHT22;18810;53.040;8.850;2023-02-17T01:35:19;9.70;99.90
32334;DHT22;18810;53.040;8.850;2023-02-17T01:37:45;9.70;99.90
32334;DHT22;18810;53.040;8.850;2023-02-17T01:40:13;9.60;99.90
32334;DHT22;18810;53.040;8.850;2023-02-17T01:42:38;9.60;99.90
32334;DHT22;18810;53.040;8.850;2023-02-17T01:50:44;9.60;99.90
32334;DHT22;18810;53.040;8.850;2023-02-17T01:53:14;9.60;99.90
32334;DHT22;18810;53.040;8.850;2023-02-17T01:55:42;9.70;99.90
32334;DHT22;18810;53.040;8.850;2023-02-17T01:58:11;9.80;99.90
32334;DHT22;18810;53.040;8.850;2023-02-17T02:00:37;9.70;99.90
32334;DHT22;18810;53.040;8.850;2023-02-17T02:03:07;9.60;99.90
32334;DHT22;18810;53.040;8.850;2023-02-17T02:05:33;9.60;99.90
32334;DHT22;18810;53.040;8.850;2023-02-17T02:07:59;9.60;99.90
32334;DHT22;18810;53.040;8.850;2023-02-17T02:10:25;9.70;99.90
32334;DHT22;18810;53.040;8.850;2023-02-17T02:12:50;9.80;99.90
32334;DHT22;18810;53.040;8.850;2023-02-17T02:15:20;9.80;99.90
32334;DHT22;18810;53.040;8.850;2023-02-17T02:26:28;9.90;99.90
32334;DHT22;18810;53.040;8.850;2023-02-17T02:34:56;9.80;99.90
32334;DHT22;18810;53.040;8.850;2023-02-17T02:37:33;9.70;99.90
32334;DHT22;18810;53.040;8.850;2023-02-17T02:40:02;9.80;99.90
32334;DHT22;18810;53.040;8.850;2023-02-17T02:42:30;9.70;99.90
32334;DHT22;18810;53.040;8.850;2023-02-17T02:44:57;9.80;99.90
32334;DHT22;18810;53.040;8.850;2023-02-17T02:50:13;9.70;99.90
32334;DHT22;18810;53.040;8.850;2023-02-17T02:52:59;9.70;99.90
32334;DHT22;18810;53.040;8.850;2023-02-17T02:58:41;9.80;99.90
32334;DHT22;18810;53.040;8.850;2023-02-17T03:04:16;9.70;99.90
32334;DHT22;18810;53.040;8.850;2023-02-17T03:06:48;9.70;99.90
32334;DHT22;18810;53.040;8.850;2023-02-17T03:09:20;9.70;99.90
32334;DHT22;18810;53.040;8.850;2023-02-17T03:11:47;9.80;99.90
32334;DHT22;18810;53.040;8.850;2023-02-17T03:14:16;9.80;99.90
32334;DHT22;18810;53.040;8.850;2023-02-17T03:16:42;9.90;99.90
32334;DHT22;18810;53.040;8.850;2023-02-17T03:19:10;9.80;99.90
32334;DHT22;18810;53.040;8.850;2023-02-17T03:21:49;9.80;99.90
32334;DHT22;18810;53.040;8.850;2023-02-17T03:24:15;9.90;99.90
32334;DHT22;18810;53.040;8.850;2023-02-17T03:26:41;9.80;99.90
32334;DHT22;18810;53.040;8.850;2023-02-17T03:29:07;9.80;99.90
32334;DHT22;18810;53.040;8.850;2023-02-17T03:38:51;9.80;99.90
32334;DHT22;18810;53.040;8.850;2023-02-17T03:41:16;9.80;99.90
32334;DHT22;18810;53.040;8.850;2023-02-17T03:43:42;9.80;99.90
32334;DHT22;18810;53.040;8.850;2023-02-17T03:46:12;10.00;99.90
32334;DHT22;18810;53.040;8.850;2023-02-17T03:48:38;9.80;99.90
32334;DHT22;18810;53.040;8.850;2023-02-17T03:51:16;9.90;99.90
32334;DHT22;18810;53.040;8.850;2023-02-17T03:53:43;9.80;99.90
32334;DHT22;18810;53.040;8.850;2023-02-17T03:56:10;9.90;99.90
32334;DHT22;18810;53.040;8.850;2023-02-17T03:58:37;9.80;99.90
32334;DHT22;18810;53.040;8.850;2023-02-17T04:01:04;9.80;99.90
32334;DHT22;18810;53.040;8.850;2023-02-17T04:03:30;9.80;99.90
32334;DHT22;18810;53.040;8.850;2023-02-17T04:05:56;9.80;99.90
32334;DHT22;18810;53.040;8.850;2023-02-17T04:08:22;9.80;99.90
32334;DHT22;18810;53.040;8.850;2023-02-17T04:10:52;9.80;99.90
32334;DHT22;18810;53.040;8.850;2023-02-17T04:13:18;9.90;99.90
32334;DHT22;18810;53.040;8.850;2023-02-17T04:15:44;9.90;99.90
32334;DHT22;18810;53.040;8.850;2023-02-17T04:32:46;10.00;99.90
32334;DHT22;18810;53.040;8.850;2023-02-17T04:37:37;10.00;99.90
32334;DHT22;18810;53.040;8.850;2023-02-17T04:40:03;10.10;99.90
32334;DHT22;18810;53.040;8.850;2023-02-17T04:49:47;10.00;99.90
32334;DHT22;18810;53.040;8.850;2023-02-17T04:52:12;10.00;99.90
32334;DHT22;18810;53.040;8.850;2023-02-17T05:04:22;10.10;99.90
32334;DHT22;18810;53.040;8.850;2023-02-17T05:06:48;10.10;99.90
32334;DHT22;18810;53.040;8.850;2023-02-17T05:14:05;10.20;99.90
32334;DHT22;18810;53.040;8.850;2023-02-17T05:16:31;10.20;99.90
32334;DHT22;18810;53.040;8.850;2023-02-17T05:18:56;10.30;99.90
32334;DHT22;18810;53.040;8.850;2023-02-17T05:21:22;10.30;99.90
32334;DHT22;18810;53.040;8.850;2023-02-17T05:23:47;10.30;99.90
32334;DHT22;18810;53.040;8.850;2023-02-17T05:28:39;10.20;99.90
32334;DHT22;18810;53.040;8.850;2023-02-17T05:31:05;10.20;99.90
32334;DHT22;18810;53.040;8.850;2023-02-17T05:36:02;10.20;99.90
32334;DHT22;18810;53.040;8.850;2023-02-17T05:38:28;10.20;99.90
32334;DHT22;18810;53.040;8.850;2023-02-17T05:40:54;10.20;99.90
32334;DHT22;18810;53.040;8.850;2023-02-17T05:43:19;10.20;99.90
32334;DHT22;18810;53.040;8.850;2023-02-17T05:45:45;10.20;99.90
32334;DHT22;18810;53.040;8.850;2023-02-17T05:48:11;10.20;99.90
32334;DHT22;18810;53.040;8.850;2023-02-17T05:53:02;10.30;99.90
32334;DHT22;18810;53.040;8.850;2023-02-17T06:00:20;10.30;99.90
32334;DHT22;18810;53.040;8.850;2023-02-17T06:02:46;10.20;99.90
32334;DHT22;18810;53.040;8.850;2023-02-17T06:10:04;10.10;99.90
32334;DHT22;18810;53.040;8.850;2023-02-17T06:12:30;10.10;99.90
32334;DHT22;18810;53.040;8.850;2023-02-17T06:14:56;10.10;99.90
32334;DHT22;18810;53.040;8.850;2023-02-17T06:17:21;10.20;99.90
32334;DHT22;18810;53.040;8.850;2023-02-17T06:19:47;10.20;99.90
32334;DHT22;18810;53.040;8.850;2023-02-17T06:27:04;10.30;99.90
32334;DHT22;18810;53.040;8.850;2023-02-17T06:41:40;10.30;99.90
32334;DHT22;18810;53.040;8.850;2023-02-17T06:44:07;10.30;99.90
32334;DHT22;18810;53.040;8.850;2023-02-17T06:46:33;10.30;99.90
32334;DHT22;18810;53.040;8.850;2023-02-17T06:48:58;10.40;99.90
32334;DHT22;18810;53.040;8.850;2023-02-17T06:51:26;10.30;99.90
32334;DHT22;18810;53.040;8.850;2023-02-17T06:53:52;10.30;99.90
32334;DHT22;18810;53.040;8.850;2023-02-17T06:56:17;10.30;99.90
32334;DHT22;18810;53.040;8.850;2023-02-17T07:01:21;10.30;99.90
32334;DHT22;18810;53.040;8.850;2023-02-17T07:11:07;10.20;99.90
32334;DHT22;18810;53.040;8.850;2023-02-17T07:13:33;10.30;99.90
32334;DHT22;18810;53.040;8.850;2023-02-17T07:15:59;10.20;99.90
32334;DHT22;18810;53.040;8.850;2023-02-17T07:18:25;10.30;99.90
32334;DHT22;18810;53.040;8.850;2023-02-17T07:20:51;10.30;99.90
32334;DHT22;18810;53.040;8.850;2023-02-17T07:23:17;10.30;99.90
32334;DHT22;18810;53.040;8.850;2023-02-17T07:30:41;10.30;99.90
32334;DHT22;18810;53.040;8.850;2023-02-17T07:38:00;10.30;99.90
32334;DHT22;18810;53.040;8.850;2023-02-17T07:40:26;10.20;99.90
32334;DHT22;18810;53.040;8.850;2023-02-17T07:42:52;10.30;99.90
32334;DHT22;18810;53.040;8.850;2023-02-17T07:47:44;10.30;99.90
32334;DHT22;18810;53.040;8.850;2023-02-17T07:50:10;10.20;99.90
32334;DHT22;18810;53.040;8.850;2023-02-17T07:57:29;10.20;99.90
32334;DHT22;18810;53.040;8.850;2023-02-17T08:04:46;10.30;99.90
32334;DHT22;18810;53.040;8.850;2023-02-17T08:07:12;10.20;99.90
32334;DHT22;18810;53.040;8.850;2023-02-17T08:09:38;10.20;99.90
32334;DHT22;18810;53.040;8.850;2023-02-17T08:12:22;10.20;99.90
32334;DHT22;18810;53.040;8.850;2023-02-17T08:15:08;10.20;99.90
32334;DHT22;18810;53.040;8.850;2023-02-17T08:17:34;10.20;99.90
32334;DHT22;18810;53.040;8.850;2023-02-17T08:20:00;10.20;99.90
32334;DHT22;18810;53.040;8.850;2023-02-17T08:22:25;10.20;99.90
32334;DHT22;18810;53.040;8.850;2023-02-17T08:24:51;10.20;99.90
32334;DHT22;18810;53.040;8.850;2023-02-17T08:27:18;10.20;99.90
32334;DHT22;18810;53.040;8.850;2023-02-17T08:32:11;10.10;99.90
32334;DHT22;18810;53.040;8.850;2023-02-17T08:34:37;10.10;99.90
32334;DHT22;18810;53.040;8.850;2023-02-17T08:37:04;10.20;99.90
32334;DHT22;18810;53.040;8.850;2023-02-17T08:39:31;10.20;99.90
32334;DHT22;18810;53.040;8.850;2023-02-17T08:41:57;10.30;99.90
32334;DHT22;18810;53.040;8.850;2023-02-17T08:44:22;10.30;99.90
32334;DHT22;18810;53.040;8.850;2023-02-17T08:46:50;10.30;99.90
32334;DHT22;18810;53.040;8.850;2023-02-17T08:49:18;10.30;99.90
32334;DHT22;18810;53.040;8.850;2023-02-17T08:51:45;10.30;99.90
32334;DHT22;18810;53.040;8.850;2023-02-17T08:54:12;10.40;99.90
32334;DHT22;18810;53.040;8.850;2023-02-17T08:56:38;10.40;99.90
32334;DHT22;18810;53.040;8.850;2023-02-17T08:59:09;10.40;99.90
32334;DHT22;18810;53.040;8.850;2023-02-17T09:01:35;10.40;99.90
32334;DHT22;18810;53.040;8.850;2023-02-17T09:04:03;10.40;99.90
32334;DHT22;18810;53.040;8.850;2023-02-17T09:06:36;10.40;99.90
32334;DHT22;18810;53.040;8.850;2023-02-17T09:09:03;10.50;99.90
32334;DHT22;18810;53.040;8.850;2023-02-17T09:13:55;10.50;99.90
32334;DHT22;18810;53.040;8.850;2023-02-17T09:16:21;10.80;99.90
32334;DHT22;18810;53.040;8.850;2023-02-17T09:18:51;10.50;99.90
32334;DHT22;18810;53.040;8.850;2023-02-17T09:21:18;10.50;99.90
32334;DHT22;18810;53.040;8.850;2023-02-17T09:23:44;10.60;99.90
32334;DHT22;18810;53.040;8.850;2023-02-17T09:26:12;10.50;99.90
32334;DHT22;18810;53.040;8.850;2023-02-17T09:28:39;10.50;99.90
32334;DHT22;18810;53.040;8.850;2023-02-17T09:31:13;10.60;99.90
32334;DHT22;18810;53.040;8.850;2023-02-17T09:33:40;10.60;99.90
32334;DHT22;18810;53.040;8.850;2023-02-17T09:36:08;10.60;99.90
32334;DHT22;18810;53.040;8.850;2023-02-17T09:38:35;10.60;99.90
32334;DHT22;18810;53.040;8.850;2023-02-17T09:43:39;10.70;99.90
32334;DHT22;18810;53.040;8.850;2023-02-17T09:46:09;10.80;99.90
32334;DHT22;18810;53.040;8.850;2023-02-17T09:48:36;10.80;99.90
32334;DHT22;18810;53.040;8.850;2023-02-17T09:51:09;10.90;99.90
32334;DHT22;18810;53.040;8.850;2023-02-17T09:56:17;10.80;99.90
32334;DHT22;18810;53.040;8.850;2023-02-17T09:58:56;10.90;99.90
32334;DHT22;18810;53.040;8.850;2023-02-17T10:01:29;10.90;99.90
32334;DHT22;18810;53.040;8.850;2023-02-17T10:04:11;10.90;99.90
32334;DHT22;18810;53.040;8.850;2023-02-17T10:06:42;11.00;99.90
32334;DHT22;18810;53.040;8.850;2023-02-17T10:12:02;11.10;99.90
32334;DHT22;18810;53.040;8.850;2023-02-17T10:14:39;11.10;99.90
32334;DHT22;18810;53.040;8.850;2023-02-17T10:17:34;11.30;99.90
32334;DHT22;18810;53.040;8.850;2023-02-17T10:20:08;11.40;99.90
32334;DHT22;18810;53.040;8.850;2023-02-17T10:22:36;11.40;99.90
32334;DHT22;18810;53.040;8.850;2023-02-17T10:25:24;11.40;99.90
32334;DHT22;18810;53.040;8.850;2023-02-17T10:28:15;11.60;99.90
32334;DHT22;18810;53.040;8.850;2023-02-17T10:33:23;11.60;99.90
32334;DHT22;18810;53.040;8.850;2023-02-17T10:35:58;11.60;99.90
32334;DHT22;18810;53.040;8.850;2023-02-17T10:41:23;11.60;99.90
32334;DHT22;18810;53.040;8.850;2023-02-17T10:43:51;11.70;99.90
32334;DHT22;18810;53.040;8.850;2023-02-17T10:46:22;11.80;99.90
32334;DHT22;18810;53.040;8.850;2023-02-17T10:48:52;11.70;99.90
32334;DHT22;18810;53.040;8.850;2023-02-17T10:51:22;11.70;99.90
32334;DHT22;18810;53.040;8.850;2023-02-17T10:54:02;11.80;99.90
32334;DHT22;18810;53.040;8.850;2023-02-17T10:59:06;11.80;99.90
32334;DHT22;18810;53.040;8.850;2023-02-17T11:01:34;11.80;99.90
32334;DHT22;18810;53.040;8.850;2023-02-17T11:04:06;11.70;99.90
32334;DHT22;18810;53.040;8.850;2023-02-17T11:06:36;11.70;99.90
32334;DHT22;18810;53.040;8.850;2023-02-17T11:09:05;11.80;99.90
32334;DHT22;18810;53.040;8.850;2023-02-17T11:11:35;11.80;99.90
32334;DHT22;18810;53.040;8.850;2023-02-17T11:14:12;11.80;99.90
32334;DHT22;18810;53.040;8.850;2023-02-17T11:16:47;11.90;99.90
32334;DHT22;18810;53.040;8.850;2023-02-17T11:21:57;11.90;99.90
32334;DHT22;18810;53.040;8.850;2023-02-17T11:24:24;11.90;99.90
32334;DHT22;18810;53.040;8.850;2023-02-17T11:26:59;11.90;99.90
32334;DHT22;18810;53.040;8.850;2023-02-17T11:29:25;11.80;99.90
32334;DHT22;18810;53.040;8.850;2023-02-17T11:31:59;11.80;99.90
32334;DHT22;18810;53.040;8.850;2023-02-17T11:34:30;11.80;99.90
32334;DHT22;18810;53.040;8.850;2023-02-17T11:39:40;11.80;99.90
32334;DHT22;18810;53.040;8.850;2023-02-17T11:42:27;11.80;99.90
32334;DHT22;18810;53.040;8.850;2023-02-17T11:44:56;11.90;99.90
32334;DHT22;18810;53.040;8.850;2023-02-17T12:00:39;11.70;99.90
32334;DHT22;18810;53.040;8.850;2023-02-17T12:03:25;11.90;99.90
32334;DHT22;18810;53.040;8.850;2023-02-17T12:06:04;11.80;99.90
32334;DHT22;18810;53.040;8.850;2023-02-17T12:11:31;11.90;99.90
32334;DHT22;18810;53.040;8.850;2023-02-17T12:17:17;11.50;99.90
32334;DHT22;18810;53.040;8.850;2023-02-17T12:20:27;11.30;99.90
32334;DHT22;18810;53.040;8.850;2023-02-17T12:25:32;11.10;99.90
32334;DHT22;18810;53.040;8.850;2023-02-17T12:35:51;11.00;99.90
32334;DHT22;18810;53.040;8.850;2023-02-17T12:38:31;11.00;99.90
32334;DHT22;18810;53.040;8.850;2023-02-17T12:41:25;11.00;99.90
32334;DHT22;18810;53.040;8.850;2023-02-17T12:43:58;11.00;99.90
32334;DHT22;18810;53.040;8.850;2023-02-17T12:46:48;11.10;99.90
32334;DHT22;18810;53.040;8.850;2023-02-17T12:49:48;11.00;99.90
32334;DHT22;18810;53.040;8.850;2023-02-17T12:52:14;11.00;99.90
32334;DHT22;18810;53.040;8.850;2023-02-17T12:54:49;11.00;99.90
32334;DHT22;18810;53.040;8.850;2023-02-17T12:57:53;11.00;99.90
32334;DHT22;18810;53.040;8.850;2023-02-17T13:00:45;11.00;99.90
32334;DHT22;18810;53.040;8.850;2023-02-17T13:03:12;11.00;99.90
32334;DHT22;18810;53.040;8.850;2023-02-17T13:05:50;11.00;99.90
32334;DHT22;18810;53.040;8.850;2023-02-17T13:08:25;11.00;99.90
32334;DHT22;18810;53.040;8.850;2023-02-17T13:11:02;10.90;99.90
32334;DHT22;18810;53.040;8.850;2023-02-17T13:13:31;10.90;99.90
32334;DHT22;18810;53.040;8.850;2023-02-17T13:18:29;10.90;99.90
32334;DHT22;18810;53.040;8.850;2023-02-17T13:26:10;11.00;99.90
32334;DHT22;18810;53.040;8.850;2023-02-17T13:28:39;11.00;99.90
32334;DHT22;18810;53.040;8.850;2023-02-17T13:36:13;11.10;99.90
32334;DHT22;18810;53.040;8.850;2023-02-17T13:38:39;11.10;99.90
32334;DHT22;18810;53.040;8.850;2023-02-17T13:41:16;11.30;99.90
32334;DHT22;18810;53.040;8.850;2023-02-17T13:43:42;11.30;99.90
32334;DHT22;18810;53.040;8.850;2023-02-17T13:46:19;11.40;99.90
32334;DHT22;18810;53.040;8.850;2023-02-17T13:48:45;11.40;99.90
32334;DHT22;18810;53.040;8.850;2023-02-17T13:51:25;11.40;99.90
32334;DHT22;18810;53.040;8.850;2023-02-17T13:53:51;11.40;99.90
32334;DHT22;18810;53.040;8.850;2023-02-17T13:56:25;11.60;99.90
32334;DHT22;18810;53.040;8.850;2023-02-17T13:58:52;11.50;99.90
32334;DHT22;18810;53.040;8.850;2023-02-17T14:01:21;11.60;99.90
32334;DHT22;18810;53.040;8.850;2023-02-17T14:03:53;11.60;99.90
32334;DHT22;18810;53.040;8.850;2023-02-17T14:06:32;11.70;99.90
32334;DHT22;18810;53.040;8.850;2023-02-17T14:11:38;11.70;99.90
32334;DHT22;18810;53.040;8.850;2023-02-17T14:14:06;11.70;99.90
32334;DHT22;18810;53.040;8.850;2023-02-17T14:16:35;11.70;99.90
32334;DHT22;18810;53.040;8.850;2023-02-17T14:19:09;11.80;99.90
32334;DHT22;18810;53.040;8.850;2023-02-17T14:21:39;11.80;99.90
32334;DHT22;18810;53.040;8.850;2023-02-17T14:24:04;11.80;99.90
32334;DHT22;18810;53.040;8.850;2023-02-17T14:26:42;11.90;99.90
32334;DHT22;18810;53.040;8.850;2023-02-17T14:29:11;11.90;99.90
32334;DHT22;18810;53.040;8.850;2023-02-17T14:31:48;11.90;99.90
32334;DHT22;18810;53.040;8.850;2023-02-17T14:34:29;10.90;99.90
32334;DHT22;18810;53.040;8.850;2023-02-17T14:37:14;12.00;99.90
32334;DHT22;18810;53.040;8.850;2023-02-17T14:39:41;11.90;99.90
32334;DHT22;18810;53.040;8.850;2023-02-17T14:42:07;11.90;99.90
32334;DHT22;18810;53.040;8.850;2023-02-17T14:44:32;11.90;99.90
32334;DHT22;18810;53.040;8.850;2023-02-17T14:46:59;11.90;99.90
32334;DHT22;18810;53.040;8.850;2023-02-17T14:49:25;12.00;99.90
32334;DHT22;18810;53.040;8.850;2023-02-17T14:51:50;12.10;99.90
32334;DHT22;18810;53.040;8.850;2023-02-17T14:54:17;12.20;99.90
32334;DHT22;18810;53.040;8.850;2023-02-17T14:56:48;12.20;99.90
32334;DHT22;18810;53.040;8.850;2023-02-17T14:59:16;12.20;99.90
32334;DHT22;18810;53.040;8.850;2023-02-17T15:01:41;12.30;99.90
32334;DHT22;18810;53.040;8.850;2023-02-17T15:04:07;12.30;99.90
32334;DHT22;18810;53.040;8.850;2023-02-17T15:06:40;12.30;99.90
32334;DHT22;18810;53.040;8.850;2023-02-17T15:09:18;12.30;99.90
32334;DHT22;18810;53.040;8.850;2023-02-17T15:11:45;12.30;99.90
32334;DHT22;18810;53.040;8.850;2023-02-17T15:14:16;12.40;99.90
32334;DHT22;18810;53.040;8.850;2023-02-17T15:16:43;12.40;99.90
32334;DHT22;18810;53.040;8.850;2023-02-17T15:19:09;12.40;99.90
32334;DHT22;18810;53.040;8.850;2023-02-17T15:21:37;12.30;99.90
32334;DHT22;18810;53.040;8.850;2023-02-17T15:24:14;12.30;99.90
32334;DHT22;18810;53.040;8.850;2023-02-17T15:26:40;12.10;99.90
32334;DHT22;18810;53.040;8.850;2023-02-17T15:29:15;12.10;99.90
32334;DHT22;18810;53.040;8.850;2023-02-17T15:31:41;12.10;99.90
32334;DHT22;18810;53.040;8.850;2023-02-17T15:34:29;12.10;99.90
32334;DHT22;18810;53.040;8.850;2023-02-17T15:36:56;12.00;99.90
32334;DHT22;18810;53.040;8.850;2023-02-17T15:39:22;11.90;99.90
32334;DHT22;18810;53.040;8.850;2023-02-17T15:41:48;12.10;99.90
32334;DHT22;18810;53.040;8.850;2023-02-17T15:44:21;12.20;99.90
32334;DHT22;18810;53.040;8.850;2023-02-17T15:46:53;12.20;99.90
32334;DHT22;18810;53.040;8.850;2023-02-17T15:49:19;12.30;99.90
32334;DHT22;18810;53.040;8.850;2023-02-17T15:51:45;12.30;99.90
32334;DHT22;18810;53.040;8.850;2023-02-17T15:54:11;12.20;99.90
32334;DHT22;18810;53.040;8.850;2023-02-17T15:56:41;12.00;99.90
32334;DHT22;18810;53.040;8.850;2023-02-17T15:59:23;12.00;99.90
32334;DHT22;18810;53.040;8.850;2023-02-17T16:01:50;11.90;99.90
32334;DHT22;18810;53.040;8.850;2023-02-17T16:04:16;11.90;99.90
32334;DHT22;18810;53.040;8.850;2023-02-17T16:06:42;11.90;99.90
32334;DHT22;18810;53.040;8.850;2023-02-17T16:09:08;11.90;99.90
32334;DHT22;18810;53.040;8.850;2023-02-17T16:11:40;11.80;99.90
32334;DHT22;18810;53.040;8.850;2023-02-17T16:14:20;11.60;99.90
32334;DHT22;18810;53.040;8.850;2023-02-17T16:16:47;11.50;99.90
32334;DHT22;18810;53.040;8.850;2023-02-17T16:19:13;11.30;99.90
32334;DHT22;18810;53.040;8.850;2023-02-17T16:21:38;11.20;99.90
32334;DHT22;18810;53.040;8.850;2023-02-17T16:24:04;11.00;99.90
32334;DHT22;18810;53.040;8.850;2023-02-17T16:26:34;10.90;99.90
32334;DHT22;18810;53.040;8.850;2023-02-17T16:29:02;10.80;99.90
32334;DHT22;18810;53.040;8.850;2023-02-17T16:31:28;10.70;99.90
32334;DHT22;18810;53.040;8.850;2023-02-17T16:33:56;10.60;99.90
32334;DHT22;18810;53.040;8.850;2023-02-17T16:36:29;10.50;99.90
32334;DHT22;18810;53.040;8.850;2023-02-17T16:38:55;10.40;99.90
32334;DHT22;18810;53.040;8.850;2023-02-17T16:41:21;10.40;99.90
32334;DHT22;18810;53.040;8.850;2023-02-17T16:43:46;10.40;99.90
32334;DHT22;18810;53.040;8.850;2023-02-17T16:46:27;10.30;99.90
32334;DHT22;18810;53.040;8.850;2023-02-17T16:48:59;10.20;99.90
32334;DHT22;18810;53.040;8.850;2023-02-17T16:51:25;10.20;99.90
32334;DHT22;18810;53.040;8.850;2023-02-17T16:53:51;10.10;99.90
32334;DHT22;18810;53.040;8.850;2023-02-17T16:56:35;10.00;99.90
32334;DHT22;18810;53.040;8.850;2023-02-17T16:59:02;10.00;99.90
32334;DHT22;18810;53.040;8.850;2023-02-17T17:01:27;10.00;99.90
32334;DHT22;18810;53.040;8.850;2023-02-17T17:03:54;9.90;99.90
32334;DHT22;18810;53.040;8.850;2023-02-17T17:06:25;9.70;99.90
32334;DHT22;18810;53.040;8.850;2023-02-17T17:08:52;9.80;99.90
32334;DHT22;18810;53.040;8.850;2023-02-17T17:11:20;9.70;99.90
32334;DHT22;18810;53.040;8.850;2023-02-17T17:13:47;9.70;99.90
32334;DHT22;18810;53.040;8.850;2023-02-17T17:16:25;9.70;99.90
32334;DHT22;18810;53.040;8.850;2023-02-17T17:18:51;9.60;99.90
32334;DHT22;18810;53.040;8.850;2023-02-17T17:21:18;9.60;99.90
32334;DHT22;18810;53.040;8.850;2023-02-17T17:23:45;9.50;99.90
32334;DHT22;18810;53.040;8.850;2023-02-17T17:26:31;9.60;99.90
32334;DHT22;18810;53.040;8.850;2023-02-17T17:28:58;9.50;99.90
32334;DHT22;18810;53.040;8.850;2023-02-17T17:31:24;9.40;99.90
32334;DHT22;18810;53.040;8.850;2023-02-17T17:33:50;9.40;99.90
32334;DHT22;18810;53.040;8.850;2023-02-17T17:36:18;9.20;99.90
32334;DHT22;18810;53.040;8.850;2023-02-17T17:38:45;9.30;99.90
32334;DHT22;18810;53.040;8.850;2023-02-17T17:41:12;9.30;99.90
32334;DHT22;18810;53.040;8.850;2023-02-17T17:43:38;9.20;99.90
32334;DHT22;18810;53.040;8.850;2023-02-17T17:46:11;9.20;99.90
32334;DHT22;18810;53.040;8.850;2023-02-17T17:48:38;9.20;99.90
32334;DHT22;18810;53.040;8.850;2023-02-17T17:51:04;9.20;99.90
32334;DHT22;18810;53.040;8.850;2023-02-17T17:53:30;9.20;99.90
32334;DHT22;18810;53.040;8.850;2023-02-17T17:55:55;9.10;99.90
32334;DHT22;18810;53.040;8.850;2023-02-17T17:58:21;9.10;99.90
32334;DHT22;18810;53.040;8.850;2023-02-17T18:00:46;9.10;99.90
32334;DHT22;18810;53.040;8.850;2023-02-17T18:03:12;9.10;99.90
32334;DHT22;18810;53.040;8.850;2023-02-17T18:05:38;9.10;99.90
32334;DHT22;18810;53.040;8.850;2023-02-17T18:08:04;9.00;99.90
32334;DHT22;18810;53.040;8.850;2023-02-17T18:10:30;9.00;99.90
32334;DHT22;18810;53.040;8.850;2023-02-17T18:12:57;9.10;99.90
32334;DHT22;18810;53.040;8.850;2023-02-17T18:15:23;9.00;99.90
32334;DHT22;18810;53.040;8.850;2023-02-17T18:17:50;8.80;99.90
32334;DHT22;18810;53.040;8.850;2023-02-17T18:20:17;8.80;99.90
32334;DHT22;18810;53.040;8.850;2023-02-17T18:22:43;8.80;99.90
32334;DHT22;18810;53.040;8.850;2023-02-17T18:25:09;8.70;99.90
32334;DHT22;18810;53.040;8.850;2023-02-17T18:27:43;8.70;99.90
32334;DHT22;18810;53.040;8.850;2023-02-17T18:30:12;8.70;99.90
32334;DHT22;18810;53.040;8.850;2023-02-17T18:32:37;8.70;99.90
32334;DHT22;18810;53.040;8.850;2023-02-17T18:35:03;8.70;99.90
32334;DHT22;18810;53.040;8.850;2023-02-17T18:37:30;8.60;99.90
32334;DHT22;18810;53.040;8.850;2023-02-17T18:39:55;8.60;99.90
32334;DHT22;18810;53.040;8.850;2023-02-17T18:42:21;8.50;99.90
32334;DHT22;18810;53.040;8.850;2023-02-17T18:44:46;8.50;99.90
32334;DHT22;18810;53.040;8.850;2023-02-17T18:47:12;8.40;99.90
32334;DHT22;18810;53.040;8.850;2023-02-17T18:49:38;8.50;99.90
32334;DHT22;18810;53.040;8.850;2023-02-17T18:52:03;8.50;99.90
32334;DHT22;18810;53.040;8.850;2023-02-17T18:54:29;8.40;99.90
32334;DHT22;18810;53.040;8.850;2023-02-17T18:56:55;8.40;99.90
32334;DHT22;18810;53.040;8.850;2023-02-17T18:59:20;8.40;99.90
32334;DHT22;18810;53.040;8.850;2023-02-17T19:01:46;8.40;99.90
32334;DHT22;18810;53.040;8.850;2023-02-17T19:04:12;8.40;99.90
32334;DHT22;18810;53.040;8.850;2023-02-17T19:06:39;8.30;99.90
32334;DHT22;18810;53.040;8.850;2023-02-17T19:09:05;8.40;99.90
32334;DHT22;18810;53.040;8.850;2023-02-17T19:11:32;8.30;99.90
32334;DHT22;18810;53.040;8.850;2023-02-17T19:13:59;8.30;99.90
32334;DHT22;18810;53.040;8.850;2023-02-17T19:16:27;8.30;99.90
32334;DHT22;18810;53.040;8.850;2023-02-17T19:18:54;8.30;99.90
32334;DHT22;18810;53.040;8.850;2023-02-17T19:21:21;8.30;99.90
32334;DHT22;18810;53.040;8.850;2023-02-17T19:23:47;8.30;99.90
32334;DHT22;18810;53.040;8.850;2023-02-17T19:26:14;8.10;99.90
32334;DHT22;18810;53.040;8.850;2023-02-17T19:28:40;8.20;99.90
32334;DHT22;18810;53.040;8.850;2023-02-17T19:31:08;8.20;99.90
32334;DHT22;18810;53.040;8.850;2023-02-17T19:33:34;8.10;99.90
32334;DHT22;18810;53.040;8.850;2023-02-17T19:36:08;8.20;99.90
32334;DHT22;18810;53.040;8.850;2023-02-17T19:38:34;8.30;99.90
32334;DHT22;18810;53.040;8.850;2023-02-17T19:41:05;8.10;99.90